sensor_id;sensor_type;location;lat;lon;timestamp;P1;durP1;ratioP1;P2;durP2;ratioP2
5937;SDS011;2994;51.220;4.412;2023-08-17T00:02:04;3.20;;;2.90;;
5937;SDS011;2994;51.220;4.412;2023-08-17T00:04:29;3.53;;;3.20;;
5937;SDS011;2994;51.220;4.412;2023-08-17T00:06:55;3.17;;;2.70;;
5937;SDS011;2994;51.220;4.412;2023-08-17T00:09:20;2.90;;;2.70;;
5937;SDS011;2994;51.220;4.412;2023-08-17T00:11:47;5.00;;;3.33;;
5937;SDS011;2994;51.220;4.412;2023-08-17T00:14:12;3.30;;;3.00;;
5937;SDS011;2994;51.220;4.412;2023-08-17T00:16:38;3.20;;;2.90;;
5937;SDS011;2994;51.220;4.412;2023-08-17T00:19:03;3.40;;;3.10;;
5937;SDS011;2994;51.220;4.412;2023-08-17T00:21:29;3.60;;;3.30;;
5937;SDS011;2994;51.220;4.412;2023-08-17T00:23:54;3.13;;;2.90;;
5937;SDS011;2994;51.220;4.412;2023-08-17T00:26:21;3.70;;;3.30;;
5937;SDS011;2994;51.220;4.412;2023-08-17T00:28:46;3.37;;;2.90;;
5937;SDS011;2994;51.220;4.412;2023-08-17T00:31:12;3.60;;;2.80;;
5937;SDS011;2994;51.220;4.412;2023-08-17T00:33:37;3.17;;;2.97;;
5937;SDS011;2994;51.220;4.412;2023-08-17T00:36:03;3.00;;;2.80;;
5937;SDS011;2994;51.220;4.412;2023-08-17T00:38:28;3.20;;;3.00;;
5937;SDS011;2994;51.220;4.412;2023-08-17T00:40:54;3.63;;;3.30;;
5937;SDS011;2994;51.220;4.412;2023-08-17T00:43:20;3.83;;;3.43;;
5937;SDS011;2994;51.220;4.412;2023-08-17T00:45:45;4.83;;;4.03;;
5937;SDS011;2994;51.220;4.412;2023-08-17T00:48:12;2.97;;;2.67;;
5937;SDS011;2994;51.220;4.412;2023-08-17T00:50:38;3.80;;;3.10;;
5937;SDS011;2994;51.220;4.412;2023-08-17T00:53:04;3.53;;;2.80;;
5937;SDS011;2994;51.220;4.412;2023-08-17T00:55:30;4.20;;;3.00;;
5937;SDS011;2994;51.220;4.412;2023-08-17T00:57:57;3.77;;;3.47;;
5937;SDS011;2994;51.220;4.412;2023-08-17T01:00:23;4.07;;;3.10;;
5937;SDS011;2994;51.220;4.412;2023-08-17T01:02:51;3.47;;;2.77;;
5937;SDS011;2994;51.220;4.412;2023-08-17T01:05:18;3.10;;;2.80;;
5937;SDS011;2994;51.220;4.412;2023-08-17T01:07:43;4.97;;;2.97;;
5937;SDS011;2994;51.220;4.412;2023-08-17T01:10:09;3.97;;;3.50;;
5937;SDS011;2994;51.220;4.412;2023-08-17T01:12:42;3.37;;;3.00;;
5937;SDS011;2994;51.220;4.412;2023-08-17T01:15:17;5.07;;;3.53;;
5937;SDS011;2994;51.220;4.412;2023-08-17T01:18:01;3.23;;;2.67;;
5937;SDS011;2994;51.220;4.412;2023-08-17T01:20:35;3.70;;;2.90;;
5937;SDS011;2994;51.220;4.412;2023-08-17T01:23:05;3.50;;;3.17;;
5937;SDS011;2994;51.220;4.412;2023-08-17T01:25:31;4.33;;;3.20;;
5937;SDS011;2994;51.220;4.412;2023-08-17T01:28:02;4.33;;;2.50;;
5937;SDS011;2994;51.220;4.412;2023-08-17T01:30:28;5.00;;;3.03;;
5937;SDS011;2994;51.220;4.412;2023-08-17T01:33:01;3.10;;;2.70;;
5937;SDS011;2994;51.220;4.412;2023-08-17T01:35:34;4.17;;;3.77;;
5937;SDS011;2994;51.220;4.412;2023-08-17T01:38:20;3.80;;;3.03;;
5937;SDS011;2994;51.220;4.412;2023-08-17T01:40:48;3.43;;;2.60;;
5937;SDS011;2994;51.220;4.412;2023-08-17T01:43:16;4.10;;;3.30;;
5937;SDS011;2994;51.220;4.412;2023-08-17T01:45:42;2.70;;;2.50;;
5937;SDS011;2994;51.220;4.412;2023-08-17T01:48:07;3.70;;;2.93;;
5937;SDS011;2994;51.220;4.412;2023-08-17T01:50:33;3.97;;;3.00;;
5937;SDS011;2994;51.220;4.412;2023-08-17T01:52:59;2.50;;;2.30;;
5937;SDS011;2994;51.220;4.412;2023-08-17T01:55:24;3.73;;;2.40;;
5937;SDS011;2994;51.220;4.412;2023-08-17T01:57:49;4.20;;;2.77;;
5937;SDS011;2994;51.220;4.412;2023-08-17T02:00:15;3.30;;;2.63;;
5937;SDS011;2994;51.220;4.412;2023-08-17T02:02:41;4.13;;;3.40;;
5937;SDS011;2994;51.220;4.412;2023-08-17T02:05:06;4.03;;;3.00;;
5937;SDS011;2994;51.220;4.412;2023-08-17T02:07:32;3.37;;;3.07;;
5937;SDS011;2994;51.220;4.412;2023-08-17T02:09:58;4.97;;;2.97;;
5937;SDS011;2994;51.220;4.412;2023-08-17T02:12:24;4.37;;;2.93;;
5937;SDS011;2994;51.220;4.412;2023-08-17T02:14:49;2.83;;;2.60;;
5937;SDS011;2994;51.220;4.412;2023-08-17T02:17:14;4.53;;;3.30;;
5937;SDS011;2994;51.220;4.412;2023-08-17T02:19:41;3.20;;;2.60;;
5937;SDS011;2994;51.220;4.412;2023-08-17T02:22:07;4.00;;;2.70;;
5937;SDS011;2994;51.220;4.412;2023-08-17T02:24:33;4.43;;;2.97;;
5937;SDS011;2994;51.220;4.412;2023-08-17T02:26:58;4.30;;;2.60;;
5937;SDS011;2994;51.220;4.412;2023-08-17T02:29:24;7.47;;;2.97;;
5937;SDS011;2994;51.220;4.412;2023-08-17T02:31:49;4.57;;;3.27;;
5937;SDS011;2994;51.220;4.412;2023-08-17T02:34:15;2.83;;;2.53;;
5937;SDS011;2994;51.220;4.412;2023-08-17T02:36:40;4.27;;;3.03;;
5937;SDS011;2994;51.220;4.412;2023-08-17T02:39:06;4.47;;;3.20;;
5937;SDS011;2994;51.220;4.412;2023-08-17T02:41:31;3.33;;;3.03;;
5937;SDS011;2994;51.220;4.412;2023-08-17T02:43:57;3.23;;;2.93;;
5937;SDS011;2994;51.220;4.412;2023-08-17T02:46:23;4.43;;;3.13;;
5937;SDS011;2994;51.220;4.412;2023-08-17T02:48:48;5.47;;;3.00;;
5937;SDS011;2994;51.220;4.412;2023-08-17T02:51:14;3.87;;;3.57;;
5937;SDS011;2994;51.220;4.412;2023-08-17T02:53:40;3.23;;;2.93;;
5937;SDS011;2994;51.220;4.412;2023-08-17T02:56:06;4.40;;;3.53;;
5937;SDS011;2994;51.220;4.412;2023-08-17T02:58:31;3.73;;;3.20;;
5937;SDS011;2994;51.220;4.412;2023-08-17T03:00:56;4.27;;;3.07;;
5937;SDS011;2994;51.220;4.412;2023-08-17T03:03:22;3.47;;;2.83;;
5937;SDS011;2994;51.220;4.412;2023-08-17T03:05:47;4.40;;;3.20;;
5937;SDS011;2994;51.220;4.412;2023-08-17T03:08:13;2.77;;;2.57;;
5937;SDS011;2994;51.220;4.412;2023-08-17T03:10:38;3.67;;;3.13;;
5937;SDS011;2994;51.220;4.412;2023-08-17T03:13:04;4.00;;;3.70;;
5937;SDS011;2994;51.220;4.412;2023-08-17T03:15:29;6.33;;;3.43;;
5937;SDS011;2994;51.220;4.412;2023-08-17T03:17:55;6.00;;;2.97;;
5937;SDS011;2994;51.220;4.412;2023-08-17T03:20:20;3.27;;;2.97;;
5937;SDS011;2994;51.220;4.412;2023-08-17T03:22:46;3.10;;;2.80;;
5937;SDS011;2994;51.220;4.412;2023-08-17T03:25:11;3.37;;;3.07;;
5937;SDS011;2994;51.220;4.412;2023-08-17T03:27:37;5.10;;;3.23;;
5937;SDS011;2994;51.220;4.412;2023-08-17T03:30:03;3.77;;;2.90;;
5937;SDS011;2994;51.220;4.412;2023-08-17T03:32:29;3.97;;;3.13;;
5937;SDS011;2994;51.220;4.412;2023-08-17T03:34:55;3.80;;;3.50;;
5937;SDS011;2994;51.220;4.412;2023-08-17T03:37:20;3.90;;;2.90;;
5937;SDS011;2994;51.220;4.412;2023-08-17T03:39:46;3.47;;;3.07;;
5937;SDS011;2994;51.220;4.412;2023-08-17T03:42:11;3.00;;;2.80;;
5937;SDS011;2994;51.220;4.412;2023-08-17T03:44:36;3.30;;;2.90;;
5937;SDS011;2994;51.220;4.412;2023-08-17T03:47:02;4.33;;;2.70;;
5937;SDS011;2994;51.220;4.412;2023-08-17T03:49:27;4.10;;;2.83;;
5937;SDS011;2994;51.220;4.412;2023-08-17T03:51:53;4.60;;;3.07;;
5937;SDS011;2994;51.220;4.412;2023-08-17T03:54:18;3.73;;;3.13;;
5937;SDS011;2994;51.220;4.412;2023-08-17T03:56:44;3.93;;;3.37;;
5937;SDS011;2994;51.220;4.412;2023-08-17T03:59:09;4.60;;;3.00;;
5937;SDS011;2994;51.220;4.412;2023-08-17T04:01:35;2.57;;;2.37;;
5937;SDS011;2994;51.220;4.412;2023-08-17T04:04:00;3.13;;;2.90;;
5937;SDS011;2994;51.220;4.412;2023-08-17T04:06:26;4.13;;;3.37;;
5937;SDS011;2994;51.220;4.412;2023-08-17T04:08:51;2.80;;;2.50;;
5937;SDS011;2994;51.220;4.412;2023-08-17T04:11:16;4.43;;;3.03;;
5937;SDS011;2994;51.220;4.412;2023-08-17T04:13:42;4.57;;;4.23;;
5937;SDS011;2994;51.220;4.412;2023-08-17T04:16:07;5.90;;;3.00;;
5937;SDS011;2994;51.220;4.412;2023-08-17T04:18:33;5.87;;;3.30;;
5937;SDS011;2994;51.220;4.412;2023-08-17T04:20:58;4.43;;;2.90;;
5937;SDS011;2994;51.220;4.412;2023-08-17T04:23:24;3.83;;;3.07;;
5937;SDS011;2994;51.220;4.412;2023-08-17T04:25:49;3.30;;;3.00;;
5937;SDS011;2994;51.220;4.412;2023-08-17T04:28:14;2.80;;;2.60;;
5937;SDS011;2994;51.220;4.412;2023-08-17T04:30:40;5.10;;;3.17;;
5937;SDS011;2994;51.220;4.412;2023-08-17T04:33:08;6.27;;;2.80;;
5937;SDS011;2994;51.220;4.412;2023-08-17T04:35:34;3.83;;;3.07;;
5937;SDS011;2994;51.220;4.412;2023-08-17T04:37:59;4.13;;;2.97;;
5937;SDS011;2994;51.220;4.412;2023-08-17T04:40:25;3.40;;;2.97;;
5937;SDS011;2994;51.220;4.412;2023-08-17T04:42:51;4.80;;;3.03;;
5937;SDS011;2994;51.220;4.412;2023-08-17T04:45:16;3.23;;;2.77;;
5937;SDS011;2994;51.220;4.412;2023-08-17T04:47:41;3.87;;;3.47;;
5937;SDS011;2994;51.220;4.412;2023-08-17T04:50:07;3.20;;;2.67;;
5937;SDS011;2994;51.220;4.412;2023-08-17T04:52:33;3.07;;;2.80;;
5937;SDS011;2994;51.220;4.412;2023-08-17T04:54:58;3.80;;;3.13;;
5937;SDS011;2994;51.220;4.412;2023-08-17T04:57:24;4.63;;;2.83;;
5937;SDS011;2994;51.220;4.412;2023-08-17T04:59:49;3.20;;;2.80;;
5937;SDS011;2994;51.220;4.412;2023-08-17T05:02:15;4.03;;;2.40;;
5937;SDS011;2994;51.220;4.412;2023-08-17T05:04:41;2.63;;;2.43;;
5937;SDS011;2994;51.220;4.412;2023-08-17T05:07:07;4.03;;;2.47;;
5937;SDS011;2994;51.220;4.412;2023-08-17T05:09:33;3.00;;;2.53;;
5937;SDS011;2994;51.220;4.412;2023-08-17T05:11:58;2.80;;;2.50;;
5937;SDS011;2994;51.220;4.412;2023-08-17T05:14:24;3.83;;;2.77;;
5937;SDS011;2994;51.220;4.412;2023-08-17T05:16:49;3.77;;;2.33;;
5937;SDS011;2994;51.220;4.412;2023-08-17T05:19:14;3.83;;;2.63;;
5937;SDS011;2994;51.220;4.412;2023-08-17T05:21:40;5.47;;;2.83;;
5937;SDS011;2994;51.220;4.412;2023-08-17T05:24:05;2.83;;;2.60;;
5937;SDS011;2994;51.220;4.412;2023-08-17T05:26:31;4.70;;;3.27;;
5937;SDS011;2994;51.220;4.412;2023-08-17T05:28:56;3.07;;;2.80;;
5937;SDS011;2994;51.220;4.412;2023-08-17T05:31:22;5.53;;;2.83;;
5937;SDS011;2994;51.220;4.412;2023-08-17T05:33:47;5.30;;;3.03;;
5937;SDS011;2994;51.220;4.412;2023-08-17T05:36:13;9.70;;;3.20;;
5937;SDS011;2994;51.220;4.412;2023-08-17T05:38:39;6.13;;;2.77;;
5937;SDS011;2994;51.220;4.412;2023-08-17T05:41:04;3.10;;;2.80;;
5937;SDS011;2994;51.220;4.412;2023-08-17T05:43:30;2.83;;;2.50;;
5937;SDS011;2994;51.220;4.412;2023-08-17T05:45:57;4.40;;;3.13;;
5937;SDS011;2994;51.220;4.412;2023-08-17T05:48:24;3.33;;;2.63;;
5937;SDS011;2994;51.220;4.412;2023-08-17T05:50:49;7.43;;;3.10;;
5937;SDS011;2994;51.220;4.412;2023-08-17T05:53:15;3.90;;;2.63;;
5937;SDS011;2994;51.220;4.412;2023-08-17T05:55:40;3.47;;;2.20;;
5937;SDS011;2994;51.220;4.412;2023-08-17T05:58:06;3.50;;;3.07;;
5937;SDS011;2994;51.220;4.412;2023-08-17T06:00:31;3.40;;;2.90;;
5937;SDS011;2994;51.220;4.412;2023-08-17T06:02:57;3.77;;;2.90;;
5937;SDS011;2994;51.220;4.412;2023-08-17T06:05:26;4.47;;;4.07;;
5937;SDS011;2994;51.220;4.412;2023-08-17T06:07:53;4.23;;;2.40;;
5937;SDS011;2994;51.220;4.412;2023-08-17T06:10:19;2.93;;;2.60;;
5937;SDS011;2994;51.220;4.412;2023-08-17T06:12:45;2.70;;;2.27;;
5937;SDS011;2994;51.220;4.412;2023-08-17T06:15:11;4.30;;;2.80;;
5937;SDS011;2994;51.220;4.412;2023-08-17T06:17:38;3.03;;;2.50;;
5937;SDS011;2994;51.220;4.412;2023-08-17T06:20:04;4.33;;;2.30;;
5937;SDS011;2994;51.220;4.412;2023-08-17T06:22:30;3.37;;;2.33;;
5937;SDS011;2994;51.220;4.412;2023-08-17T06:24:55;3.30;;;2.93;;
5937;SDS011;2994;51.220;4.412;2023-08-17T06:27:21;3.23;;;2.47;;
5937;SDS011;2994;51.220;4.412;2023-08-17T06:29:46;3.30;;;2.50;;
5937;SDS011;2994;51.220;4.412;2023-08-17T06:32:12;2.90;;;2.50;;
5937;SDS011;2994;51.220;4.412;2023-08-17T06:34:37;5.97;;;2.83;;
5937;SDS011;2994;51.220;4.412;2023-08-17T06:37:03;4.50;;;2.57;;
5937;SDS011;2994;51.220;4.412;2023-08-17T06:39:31;2.90;;;2.60;;
5937;SDS011;2994;51.220;4.412;2023-08-17T06:41:57;2.67;;;2.47;;
5937;SDS011;2994;51.220;4.412;2023-08-17T06:44:23;2.90;;;2.60;;
5937;SDS011;2994;51.220;4.412;2023-08-17T06:46:48;3.73;;;2.90;;
5937;SDS011;2994;51.220;4.412;2023-08-17T06:49:13;2.70;;;2.23;;
5937;SDS011;2994;51.220;4.412;2023-08-17T06:51:39;4.23;;;2.80;;
5937;SDS011;2994;51.220;4.412;2023-08-17T06:54:05;4.40;;;3.60;;
5937;SDS011;2994;51.220;4.412;2023-08-17T06:56:32;3.87;;;3.17;;
5937;SDS011;2994;51.220;4.412;2023-08-17T06:58:58;4.33;;;2.63;;
5937;SDS011;2994;51.220;4.412;2023-08-17T07:01:23;4.20;;;3.00;;
5937;SDS011;2994;51.220;4.412;2023-08-17T07:03:48;2.57;;;2.37;;
5937;SDS011;2994;51.220;4.412;2023-08-17T07:06:14;4.27;;;3.30;;
5937;SDS011;2994;51.220;4.412;2023-08-17T07:08:39;3.63;;;3.27;;
5937;SDS011;2994;51.220;4.412;2023-08-17T07:11:05;4.07;;;3.00;;
5937;SDS011;2994;51.220;4.412;2023-08-17T07:13:31;3.63;;;3.17;;
5937;SDS011;2994;51.220;4.412;2023-08-17T07:15:56;4.40;;;3.03;;
5937;SDS011;2994;51.220;4.412;2023-08-17T07:18:22;6.50;;;2.97;;
5937;SDS011;2994;51.220;4.412;2023-08-17T07:20:47;3.30;;;3.00;;
5937;SDS011;2994;51.220;4.412;2023-08-17T07:23:14;4.90;;;3.30;;
5937;SDS011;2994;51.220;4.412;2023-08-17T07:25:40;3.97;;;3.03;;
5937;SDS011;2994;51.220;4.412;2023-08-17T07:28:05;3.47;;;2.77;;
5937;SDS011;2994;51.220;4.412;2023-08-17T07:30:31;6.63;;;2.67;;
5937;SDS011;2994;51.220;4.412;2023-08-17T07:32:56;3.93;;;3.23;;
5937;SDS011;2994;51.220;4.412;2023-08-17T07:35:22;4.53;;;3.13;;
5937;SDS011;2994;51.220;4.412;2023-08-17T07:37:47;4.27;;;2.90;;
5937;SDS011;2994;51.220;4.412;2023-08-17T07:40:13;4.43;;;2.90;;
5937;SDS011;2994;51.220;4.412;2023-08-17T07:42:38;4.47;;;3.70;;
5937;SDS011;2994;51.220;4.412;2023-08-17T07:45:04;4.80;;;3.00;;
5937;SDS011;2994;51.220;4.412;2023-08-17T07:47:31;5.80;;;4.00;;
5937;SDS011;2994;51.220;4.412;2023-08-17T07:49:57;3.40;;;2.90;;
5937;SDS011;2994;51.220;4.412;2023-08-17T07:52:23;3.97;;;3.07;;
5937;SDS011;2994;51.220;4.412;2023-08-17T07:54:48;3.00;;;2.70;;
5937;SDS011;2994;51.220;4.412;2023-08-17T07:57:14;4.23;;;3.70;;
5937;SDS011;2994;51.220;4.412;2023-08-17T07:59:39;6.73;;;3.60;;
5937;SDS011;2994;51.220;4.412;2023-08-17T08:02:05;4.43;;;3.73;;
5937;SDS011;2994;51.220;4.412;2023-08-17T08:04:31;4.67;;;4.00;;
5937;SDS011;2994;51.220;4.412;2023-08-17T08:06:56;4.37;;;2.97;;
5937;SDS011;2994;51.220;4.412;2023-08-17T08:09:22;5.10;;;4.30;;
5937;SDS011;2994;51.220;4.412;2023-08-17T08:11:47;3.90;;;3.07;;
5937;SDS011;2994;51.220;4.412;2023-08-17T08:14:13;5.00;;;4.50;;
5937;SDS011;2994;51.220;4.412;2023-08-17T08:16:38;4.47;;;3.77;;
5937;SDS011;2994;51.220;4.412;2023-08-17T08:19:04;4.70;;;4.20;;
5937;SDS011;2994;51.220;4.412;2023-08-17T08:21:30;4.23;;;3.83;;
5937;SDS011;2994;51.220;4.412;2023-08-17T08:23:56;4.10;;;3.70;;
5937;SDS011;2994;51.220;4.412;2023-08-17T08:26:33;5.93;;;3.97;;
5937;SDS011;2994;51.220;4.412;2023-08-17T08:29:07;3.87;;;3.47;;
5937;SDS011;2994;51.220;4.412;2023-08-17T08:31:34;5.60;;;4.20;;
5937;SDS011;2994;51.220;4.412;2023-08-17T08:34:01;5.80;;;5.20;;
5937;SDS011;2994;51.220;4.412;2023-08-17T08:36:27;7.93;;;3.97;;
5937;SDS011;2994;51.220;4.412;2023-08-17T08:38:53;3.50;;;3.17;;
5937;SDS011;2994;51.220;4.412;2023-08-17T08:41:18;4.63;;;3.50;;
5937;SDS011;2994;51.220;4.412;2023-08-17T08:43:44;4.90;;;3.40;;
5937;SDS011;2994;51.220;4.412;2023-08-17T08:46:10;4.33;;;3.60;;
5937;SDS011;2994;51.220;4.412;2023-08-17T08:48:36;4.57;;;4.17;;
5937;SDS011;2994;51.220;4.412;2023-08-17T08:51:05;5.30;;;3.70;;
5937;SDS011;2994;51.220;4.412;2023-08-17T08:53:42;4.50;;;4.10;;
5937;SDS011;2994;51.220;4.412;2023-08-17T08:56:13;6.00;;;4.10;;
5937;SDS011;2994;51.220;4.412;2023-08-17T08:58:43;5.57;;;4.30;;
5937;SDS011;2994;51.220;4.412;2023-08-17T09:01:10;6.60;;;4.80;;
5937;SDS011;2994;51.220;4.412;2023-08-17T09:03:35;5.37;;;4.33;;
5937;SDS011;2994;51.220;4.412;2023-08-17T09:06:02;7.67;;;5.67;;
5937;SDS011;2994;51.220;4.412;2023-08-17T09:08:29;5.07;;;4.20;;
5937;SDS011;2994;51.220;4.412;2023-08-17T09:10:55;5.53;;;4.67;;
5937;SDS011;2994;51.220;4.412;2023-08-17T09:13:21;5.47;;;4.70;;
5937;SDS011;2994;51.220;4.412;2023-08-17T09:15:47;6.60;;;5.53;;
5937;SDS011;2994;51.220;4.412;2023-08-17T09:18:12;5.43;;;4.90;;
5937;SDS011;2994;51.220;4.412;2023-08-17T09:20:38;6.57;;;4.57;;
5937;SDS011;2994;51.220;4.412;2023-08-17T09:23:15;8.00;;;5.63;;
5937;SDS011;2994;51.220;4.412;2023-08-17T09:25:42;6.20;;;4.67;;
5937;SDS011;2994;51.220;4.412;2023-08-17T09:28:10;5.60;;;4.93;;
5937;SDS011;2994;51.220;4.412;2023-08-17T09:31:15;6.87;;;5.40;;
5937;SDS011;2994;51.220;4.412;2023-08-17T09:33:34;5.20;;;4.53;;
5937;SDS011;2994;51.220;4.412;2023-08-17T09:36:00;6.70;;;5.00;;
5937;SDS011;2994;51.220;4.412;2023-08-17T09:38:26;5.90;;;5.30;;
5937;SDS011;2994;51.220;4.412;2023-08-17T09:40:53;5.97;;;5.37;;
5937;SDS011;2994;51.220;4.412;2023-08-17T09:43:19;5.43;;;4.70;;
5937;SDS011;2994;51.220;4.412;2023-08-17T09:45:48;5.87;;;5.33;;
5937;SDS011;2994;51.220;4.412;2023-08-17T09:48:18;6.70;;;5.77;;
5937;SDS011;2994;51.220;4.412;2023-08-17T09:50:44;7.73;;;5.70;;
5937;SDS011;2994;51.220;4.412;2023-08-17T09:53:15;6.53;;;4.97;;
5937;SDS011;2994;51.220;4.412;2023-08-17T09:55:42;6.47;;;5.87;;
5937;SDS011;2994;51.220;4.412;2023-08-17T09:58:08;7.40;;;5.20;;
5937;SDS011;2994;51.220;4.412;2023-08-17T10:00:34;6.27;;;5.40;;
5937;SDS011;2994;51.220;4.412;2023-08-17T10:03:01;8.77;;;5.43;;
5937;SDS011;2994;51.220;4.412;2023-08-17T10:05:28;6.13;;;5.63;;
5937;SDS011;2994;51.220;4.412;2023-08-17T10:08:04;7.17;;;6.47;;
5937;SDS011;2994;51.220;4.412;2023-08-17T10:10:46;7.80;;;5.50;;
5937;SDS011;2994;51.220;4.412;2023-08-17T10:13:59;5.70;;;5.20;;
5937;SDS011;2994;51.220;4.412;2023-08-17T10:16:12;8.30;;;5.77;;
5937;SDS011;2994;51.220;4.412;2023-08-17T10:18:45;7.43;;;6.73;;
5937;SDS011;2994;51.220;4.412;2023-08-17T10:21:23;5.60;;;5.10;;
5937;SDS011;2994;51.220;4.412;2023-08-17T10:23:54;6.33;;;5.77;;
5937;SDS011;2994;51.220;4.412;2023-08-17T10:26:20;7.27;;;6.23;;
5937;SDS011;2994;51.220;4.412;2023-08-17T10:28:47;6.60;;;4.90;;
5937;SDS011;2994;51.220;4.412;2023-08-17T10:31:13;8.70;;;5.87;;
5937;SDS011;2994;51.220;4.412;2023-08-17T10:33:39;6.57;;;4.77;;
5937;SDS011;2994;51.220;4.412;2023-08-17T10:36:08;5.87;;;5.37;;
5937;SDS011;2994;51.220;4.412;2023-08-17T10:38:34;7.23;;;6.53;;
5937;SDS011;2994;51.220;4.412;2023-08-17T10:43:54;6.60;;;5.50;;
5937;SDS011;2994;51.220;4.412;2023-08-17T10:46:20;6.87;;;5.60;;
5937;SDS011;2994;51.220;4.412;2023-08-17T10:48:46;6.37;;;5.67;;
5937;SDS011;2994;51.220;4.412;2023-08-17T10:51:11;6.27;;;5.63;;
5937;SDS011;2994;51.220;4.412;2023-08-17T10:53:38;6.80;;;6.20;;
5937;SDS011;2994;51.220;4.412;2023-08-17T10:56:07;6.20;;;5.60;;
5937;SDS011;2994;51.220;4.412;2023-08-17T10:58:35;7.77;;;6.00;;
5937;SDS011;2994;51.220;4.412;2023-08-17T11:01:01;6.90;;;5.50;;
5937;SDS011;2994;51.220;4.412;2023-08-17T11:03:27;6.10;;;5.57;;
5937;SDS011;2994;51.220;4.412;2023-08-17T11:05:54;5.83;;;5.20;;
5937;SDS011;2994;51.220;4.412;2023-08-17T11:08:50;8.10;;;6.30;;
5937;SDS011;2994;51.220;4.412;2023-08-17T11:11:17;6.60;;;6.10;;
5937;SDS011;2994;51.220;4.412;2023-08-17T11:13:45;6.57;;;5.97;;
5937;SDS011;2994;51.220;4.412;2023-08-17T11:16:14;6.97;;;6.27;;
5937;SDS011;2994;51.220;4.412;2023-08-17T11:18:41;8.40;;;7.50;;
5937;SDS011;2994;51.220;4.412;2023-08-17T11:21:07;5.43;;;4.97;;
5937;SDS011;2994;51.220;4.412;2023-08-17T11:23:35;5.83;;;5.43;;
5937;SDS011;2994;51.220;4.412;2023-08-17T11:26:02;8.70;;;5.57;;
5937;SDS011;2994;51.220;4.412;2023-08-17T11:28:29;6.47;;;5.73;;
5937;SDS011;2994;51.220;4.412;2023-08-17T11:31:01;5.40;;;4.93;;
5937;SDS011;2994;51.220;4.412;2023-08-17T11:33:28;5.40;;;4.90;;
5937;SDS011;2994;51.220;4.412;2023-08-17T11:35:55;7.53;;;6.63;;
5937;SDS011;2994;51.220;4.412;2023-08-17T11:38:25;6.90;;;6.30;;
5937;SDS011;2994;51.220;4.412;2023-08-17T11:41:04;5.67;;;5.17;;
5937;SDS011;2994;51.220;4.412;2023-08-17T11:43:32;8.87;;;6.10;;
5937;SDS011;2994;51.220;4.412;2023-08-17T11:45:58;5.50;;;5.00;;
5937;SDS011;2994;51.220;4.412;2023-08-17T11:48:26;6.57;;;6.07;;
5937;SDS011;2994;51.220;4.412;2023-08-17T11:50:52;6.60;;;5.97;;
5937;SDS011;2994;51.220;4.412;2023-08-17T11:53:19;8.50;;;6.77;;
5937;SDS011;2994;51.220;4.412;2023-08-17T11:55:44;6.43;;;5.97;;
5937;SDS011;2994;51.220;4.412;2023-08-17T11:58:10;6.20;;;5.60;;
5937;SDS011;2994;51.220;4.412;2023-08-17T12:00:35;6.57;;;5.97;;
5937;SDS011;2994;51.220;4.412;2023-08-17T12:03:04;7.17;;;5.80;;
5937;SDS011;2994;51.220;4.412;2023-08-17T12:05:30;6.43;;;5.40;;
5937;SDS011;2994;51.220;4.412;2023-08-17T12:07:57;7.87;;;6.87;;
5937;SDS011;2994;51.220;4.412;2023-08-17T12:10:24;6.70;;;5.97;;
5937;SDS011;2994;51.220;4.412;2023-08-17T12:12:52;5.63;;;5.13;;
5937;SDS011;2994;51.220;4.412;2023-08-17T12:15:17;7.03;;;6.33;;
5937;SDS011;2994;51.220;4.412;2023-08-17T12:17:44;7.80;;;7.10;;
5937;SDS011;2994;51.220;4.412;2023-08-17T12:20:17;7.83;;;7.10;;
5937;SDS011;2994;51.220;4.412;2023-08-17T12:22:44;7.20;;;6.00;;
5937;SDS011;2994;51.220;4.412;2023-08-17T12:25:10;8.93;;;8.03;;
5937;SDS011;2994;51.220;4.412;2023-08-17T12:27:36;7.20;;;5.20;;
5937;SDS011;2994;51.220;4.412;2023-08-17T12:30:02;7.70;;;7.00;;
5937;SDS011;2994;51.220;4.412;2023-08-17T12:32:27;7.93;;;7.13;;
5937;SDS011;2994;51.220;4.412;2023-08-17T12:34:53;7.23;;;6.60;;
5937;SDS011;2994;51.220;4.412;2023-08-17T12:37:19;8.07;;;7.27;;
5937;SDS011;2994;51.220;4.412;2023-08-17T12:39:46;9.77;;;8.07;;
5937;SDS011;2994;51.220;4.412;2023-08-17T12:42:12;8.43;;;7.63;;
5937;SDS011;2994;51.220;4.412;2023-08-17T12:44:38;8.03;;;7.40;;
5937;SDS011;2994;51.220;4.412;2023-08-17T12:47:04;8.90;;;8.20;;
5937;SDS011;2994;51.220;4.412;2023-08-17T12:49:30;11.53;;;9.33;;
5937;SDS011;2994;51.220;4.412;2023-08-17T12:51:55;8.27;;;7.47;;
5937;SDS011;2994;51.220;4.412;2023-08-17T12:54:21;8.60;;;7.70;;
5937;SDS011;2994;51.220;4.412;2023-08-17T12:56:46;8.93;;;8.03;;
5937;SDS011;2994;51.220;4.412;2023-08-17T12:59:12;10.53;;;9.63;;
5937;SDS011;2994;51.220;4.412;2023-08-17T13:01:37;8.40;;;7.60;;
5937;SDS011;2994;51.220;4.412;2023-08-17T13:04:03;8.73;;;7.90;;
5937;SDS011;2994;51.220;4.412;2023-08-17T13:06:29;8.37;;;7.57;;
5937;SDS011;2994;51.220;4.412;2023-08-17T13:08:55;9.70;;;7.50;;
5937;SDS011;2994;51.220;4.412;2023-08-17T13:11:20;9.93;;;8.60;;
5937;SDS011;2994;51.220;4.412;2023-08-17T13:13:46;7.63;;;6.93;;
5937;SDS011;2994;51.220;4.412;2023-08-17T13:16:11;9.73;;;8.73;;
5937;SDS011;2994;51.220;4.412;2023-08-17T13:18:37;9.47;;;8.20;;
5937;SDS011;2994;51.220;4.412;2023-08-17T13:21:03;9.93;;;7.10;;
5937;SDS011;2994;51.220;4.412;2023-08-17T13:23:29;8.07;;;7.30;;
5937;SDS011;2994;51.220;4.412;2023-08-17T13:25:54;9.10;;;8.30;;
5937;SDS011;2994;51.220;4.412;2023-08-17T13:28:20;9.80;;;8.80;;
5937;SDS011;2994;51.220;4.412;2023-08-17T13:30:45;9.50;;;8.33;;
5937;SDS011;2994;51.220;4.412;2023-08-17T13:33:11;8.37;;;7.47;;
5937;SDS011;2994;51.220;4.412;2023-08-17T13:35:37;10.40;;;7.83;;
5937;SDS011;2994;51.220;4.412;2023-08-17T13:38:03;10.23;;;9.23;;
5937;SDS011;2994;51.220;4.412;2023-08-17T13:40:29;9.30;;;8.37;;
5937;SDS011;2994;51.220;4.412;2023-08-17T13:42:55;12.10;;;9.20;;
5937;SDS011;2994;51.220;4.412;2023-08-17T13:45:21;12.20;;;9.83;;
5937;SDS011;2994;51.220;4.412;2023-08-17T13:47:46;11.73;;;9.70;;
5937;SDS011;2994;51.220;4.412;2023-08-17T13:50:12;11.47;;;10.23;;
5937;SDS011;2994;51.220;4.412;2023-08-17T13:52:37;12.20;;;9.97;;
5937;SDS011;2994;51.220;4.412;2023-08-17T13:55:03;11.97;;;10.63;;
5937;SDS011;2994;51.220;4.412;2023-08-17T13:57:28;12.17;;;10.97;;
5937;SDS011;2994;51.220;4.412;2023-08-17T13:59:54;11.50;;;10.37;;
5937;SDS011;2994;51.220;4.412;2023-08-17T14:02:19;11.90;;;10.70;;
5937;SDS011;2994;51.220;4.412;2023-08-17T14:04:45;11.30;;;9.70;;
5937;SDS011;2994;51.220;4.412;2023-08-17T14:07:11;14.33;;;11.67;;
5937;SDS011;2994;51.220;4.412;2023-08-17T14:09:36;12.10;;;10.90;;
5937;SDS011;2994;51.220;4.412;2023-08-17T14:12:02;13.83;;;11.80;;
5937;SDS011;2994;51.220;4.412;2023-08-17T14:14:29;13.87;;;11.53;;
5937;SDS011;2994;51.220;4.412;2023-08-17T14:16:55;16.53;;;11.83;;
5937;SDS011;2994;51.220;4.412;2023-08-17T14:19:21;15.40;;;12.10;;
5937;SDS011;2994;51.220;4.412;2023-08-17T14:21:47;13.73;;;12.30;;
5937;SDS011;2994;51.220;4.412;2023-08-17T14:24:13;13.70;;;12.30;;
5937;SDS011;2994;51.220;4.412;2023-08-17T14:26:38;14.63;;;12.50;;
5937;SDS011;2994;51.220;4.412;2023-08-17T14:29:04;14.50;;;13.20;;
5937;SDS011;2994;51.220;4.412;2023-08-17T14:31:29;14.77;;;13.30;;
5937;SDS011;2994;51.220;4.412;2023-08-17T14:33:55;13.33;;;12.03;;
5937;SDS011;2994;51.220;4.412;2023-08-17T14:36:20;13.60;;;12.33;;
5937;SDS011;2994;51.220;4.412;2023-08-17T14:38:46;14.80;;;13.50;;
5937;SDS011;2994;51.220;4.412;2023-08-17T14:41:12;16.57;;;14.90;;
5937;SDS011;2994;51.220;4.412;2023-08-17T14:43:38;12.43;;;11.23;;
5937;SDS011;2994;51.220;4.412;2023-08-17T14:46:03;12.10;;;10.90;;
5937;SDS011;2994;51.220;4.412;2023-08-17T14:48:29;14.47;;;11.67;;
5937;SDS011;2994;51.220;4.412;2023-08-17T14:50:54;14.10;;;12.40;;
5937;SDS011;2994;51.220;4.412;2023-08-17T14:53:20;15.40;;;13.80;;
5937;SDS011;2994;51.220;4.412;2023-08-17T14:55:46;13.60;;;12.20;;
5937;SDS011;2994;51.220;4.412;2023-08-17T14:58:12;13.30;;;11.90;;
5937;SDS011;2994;51.220;4.412;2023-08-17T15:00:38;13.00;;;11.80;;
5937;SDS011;2994;51.220;4.412;2023-08-17T15:03:04;15.00;;;13.60;;
5937;SDS011;2994;51.220;4.412;2023-08-17T15:05:29;13.20;;;11.77;;
5937;SDS011;2994;51.220;4.412;2023-08-17T15:07:56;14.60;;;12.90;;
5937;SDS011;2994;51.220;4.412;2023-08-17T15:10:22;13.83;;;12.37;;
5937;SDS011;2994;51.220;4.412;2023-08-17T15:12:47;13.57;;;12.23;;